Deinum, Netherlands
Current Conditions -  °F | °C
As of 2:25 AM on Sunday 21 Dec 2014 (Local Time) from EHLW Reporting Station
Overcast Overcast  
Wind Chill: 37°   Ceiling: 14000
Heat Index: 43°   Visibility: 6mi
Dew Point: 39°   Wind: 10mph
Humidity: 87%   Direction: 290°WNW
Pressure: 30.27"   Gusts: NA
Location:  53.19°N, 5.72°E
Report Text: EHLW 210125Z AUTO 29009KT 9999 OVC140 06/04 Q1025 BLU
Loading
Personal Weather Stations






























Interactive Weather Map New forecast layout! Learn more

10-Day Weather Forecast

Advertisements
Track Severe Weather on mobile